Time;durP1;ratioP1;P1;durP2;ratioP2;P2;SDS_P1;SDS_P2;PMS_P1;PMS_P2;Temp;Humidity;BMP_temperature;BMP_pressure;BME280_temperature;BME280_humidity;BME280_pressure;Samples;Min_cycle;Max_cycle;Signal;HPM_P1;HPM_P2
2022/06/23 00:01:54;;;;;;;10.05;4.13;;;;;;;17.99;54.08;101093.63;5071931;28;20388;-70
2022/06/23 00:04:24;;;;;;;7.50;4.40;;;;;;;17.92;55.03;101094.88;5073019;28;20103;-70
2022/06/23 00:06:55;;;;;;;5.70;4.15;;;;;;;17.88;55.06;101092.47;5072500;28;20029;-70
2022/06/23 00:09:49;;;;;;;6.78;4.03;;;;;;;17.92;54.19;101089.59;5072098;28;20043;-69
2022/06/23 00:12:25;;;;;;;9.27;4.40;;;;;;;17.91;55.72;101094.94;5064057;28;20040;-70
2022/06/23 00:14:51;;;;;;;6.97;4.32;;;;;;;17.86;56.42;101086.44;5072457;28;20017;-70
2022/06/23 00:17:17;;;;;;;6.47;4.43;;;;;;;17.84;56.43;101090.91;5072316;28;20034;-69
2022/06/23 00:19:44;;;;;;;9.63;4.32;;;;;;;17.82;57.23;101098.91;5072462;28;20299;-70
2022/06/23 00:22:12;;;;;;;6.93;4.55;;;;;;;17.76;57.70;101086.00;5071934;28;20036;-69
2022/06/23 00:24:39;;;;;;;7.97;4.40;;;;;;;17.81;57.86;101096.34;5072382;28;20024;-70
2022/06/23 00:27:05;;;;;;;10.43;5.13;;;;;;;17.76;58.29;101094.78;5072515;28;20484;-70
2022/06/23 00:29:31;;;;;;;6.25;4.60;;;;;;;17.70;58.59;101083.66;5071883;28;20107;-70
2022/06/23 00:32:01;;;;;;;6.05;4.63;;;;;;;17.67;59.07;101097.00;5072347;28;20039;-70
2022/06/23 00:34:56;;;;;;;6.82;4.97;;;;;;;17.63;57.52;101098.06;5072782;28;20036;-69
2022/06/23 00:37:21;;;;;;;8.95;5.05;;;;;;;17.54;60.26;101096.72;5071674;28;20025;-70
2022/06/23 00:39:46;;;;;;;7.05;4.80;;;;;;;17.59;60.23;101105.25;5072179;28;20071;-69
2022/06/23 00:42:25;;;;;;;10.67;5.83;;;;;;;17.65;60.02;101096.19;5072458;28;20021;-69
2022/06/23 00:45:03;;;;;;;8.23;5.18;;;;;;;17.60;60.13;101099.06;5071317;28;20809;-70
2022/06/23 00:47:42;;;;;;;9.75;5.43;;;;;;;17.52;61.70;101090.66;5072403;28;20029;-70
2022/06/23 00:50:35;;;;;;;8.52;5.60;;;;;;;17.54;60.07;101096.72;5072505;28;20024;-70
2022/06/23 00:53:12;;;;;;;10.52;6.00;;;;;;;17.49;61.06;101078.50;5072300;28;20407;-69
2022/06/23 00:55:44;;;;;;;10.82;5.75;;;;;;;17.48;62.30;101076.78;5071904;28;20526;-70
2022/06/23 00:58:27;;;;;;;14.68;6.05;;;;;;;17.47;61.66;101072.44;5071494;28;20487;-71
2022/06/23 01:01:02;;;;;;;10.38;5.72;;;;;;;17.36;63.28;101077.38;5072036;28;20492;-70
2022/06/23 01:03:34;;;;;;;11.07;6.53;;;;;;;17.36;63.43;101080.00;5072534;28;20031;-70
2022/06/23 01:06:06;;;;;;;11.50;6.03;;;;;;;17.34;63.59;101073.13;5071615;28;20473;-71
2022/06/23 01:08:39;;;;;;;9.75;5.95;;;;;;;17.34;63.94;101066.06;5072370;28;20283;-69
2022/06/23 01:11:16;;;;;;;9.68;6.05;;;;;;;17.26;64.03;101055.03;5072304;28;20027;-70
2022/06/23 01:13:49;;;;;;;10.73;6.57;;;;;;;17.25;64.71;101071.78;5071260;28;20025;-70
2022/06/23 01:16:32;;;;;;;9.32;6.80;;;;;;;17.22;64.65;101075.41;5072326;28;20039;-69
2022/06/23 01:19:45;;;;;;;9.38;6.45;;;;;;;17.14;64.17;101069.66;5071358;28;20032;-70
2022/06/23 01:22:33;;;;;;;12.88;6.50;;;;;;;17.03;64.48;101069.28;5066855;28;20048;-70
2022/06/23 01:25:21;;;;;;;8.77;6.78;;;;;;;16.99;67.43;101071.22;5073286;28;20030;-70
2022/06/23 01:28:15;;;;;;;9.63;6.88;;;;;;;17.01;65.58;101072.00;5071658;28;20527;-69
2022/06/23 01:31:05;;;;;;;8.75;7.30;;;;;;;17.01;65.96;101068.53;5075524;28;20028;-70
2022/06/23 01:33:37;;;;;;;10.60;7.43;;;;;;;17.01;67.55;101072.00;5074752;28;20026;-70
2022/06/23 01:36:18;;;;;;;14.50;7.32;;;;;;;16.98;67.55;101076.56;5075504;28;20024;-70
2022/06/23 01:39:04;;;;;;;11.27;7.53;;;;;;;16.96;67.31;101078.41;5075275;28;20056;-69
2022/06/23 01:41:41;;;;;;;10.15;7.53;;;;;;;16.91;68.14;101077.78;5074664;28;20082;-69
2022/06/23 01:44:26;;;;;;;14.93;8.07;;;;;;;16.91;68.01;101073.34;5075662;28;20037;-70
2022/06/23 01:46:55;;;;;;;12.43;7.45;;;;;;;16.88;69.93;101073.50;5074114;28;20398;-70
2022/06/23 01:49:26;;;;;;;10.98;7.57;;;;;;;16.85;69.87;101066.59;5075279;28;20038;-69
2022/06/23 01:52:07;;;;;;;11.73;7.43;;;;;;;16.84;69.50;101071.94;5074980;28;20074;-69
2022/06/23 01:54:34;;;;;;;12.85;7.88;;;;;;;16.83;70.87;101067.56;5074239;28;20047;-69
2022/06/23 01:57:08;;;;;;;13.55;8.63;;;;;;;16.88;70.65;101070.00;5075102;28;20051;-70
2022/06/23 01:59:53;;;;;;;14.43;8.50;;;;;;;16.82;70.45;101071.13;5074741;28;20060;-69
2022/06/23 02:02:40;;;;;;;16.05;8.43;;;;;;;16.81;71.42;101072.06;5074553;28;20056;-70
2022/06/23 02:05:16;;;;;;;10.25;7.75;;;;;;;16.81;70.48;101064.19;5074972;28;20412;-69
2022/06/23 02:07:41;;;;;;;12.57;8.60;;;;;;;16.85;70.87;101063.09;5073941;28;20032;-69
2022/06/23 02:10:37;;;;;;;13.15;8.13;;;;;;;16.86;69.49;101054.28;5075014;28;20055;-69
2022/06/23 02:13:04;;;;;;;12.68;8.40;;;;;;;16.82;71.52;101056.19;5072566;28;20526;-69
2022/06/23 02:15:35;;;;;;;11.90;8.93;;;;;;;16.75;71.87;101067.94;5073892;28;20028;-70
2022/06/23 02:18:13;;;;;;;12.95;8.38;;;;;;;16.69;72.00;101065.53;5074615;28;20031;-69
2022/06/23 02:20:43;;;;;;;11.35;8.90;;;;;;;16.70;71.77;101058.50;5074363;28;20063;-69
2022/06/23 02:23:17;;;;;;;14.63;9.02;;;;;;;16.71;71.83;101052.31;5074032;28;20051;-70
2022/06/23 02:25:51;;;;;;;12.38;8.80;;;;;;;16.72;72.05;101051.41;5074387;28;20050;-70
2022/06/23 02:28:32;;;;;;;13.73;8.88;;;;;;;16.65;72.33;101055.25;5074637;28;20074;-69
2022/06/23 02:31:14;;;;;;;15.85;9.02;;;;;;;16.62;72.55;101049.19;5073769;28;20028;-69
2022/06/23 02:33:55;;;;;;;14.15;8.85;;;;;;;16.69;71.93;101062.06;5073958;28;20033;-70
2022/06/23 02:36:39;;;;;;;12.98;8.60;;;;;;;16.70;72.52;101050.59;5073319;28;20017;-70
2022/06/23 02:39:19;;;;;;;13.32;8.75;;;;;;;16.68;72.12;101058.59;5074162;28;20385;-69
2022/06/23 02:41:56;;;;;;;15.57;8.65;;;;;;;16.68;72.36;101061.22;5074153;28;20017;-69
2022/06/23 02:44:43;;;;;;;13.85;8.63;;;;;;;16.72;72.69;101059.28;5073512;28;20031;-70
2022/06/23 02:47:39;;;;;;;14.35;8.80;;;;;;;16.71;71.44;101054.94;5073978;28;20107;-70
2022/06/23 02:50:25;;;;;;;18.67;9.55;;;;;;;16.56;72.16;101052.09;5063519;28;20575;-69
2022/06/23 02:53:06;;;;;;;13.93;8.93;;;;;;;16.56;72.28;101054.72;5073713;28;20103;-70
2022/06/23 02:55:47;;;;;;;15.32;9.00;;;;;;;16.50;72.67;101049.72;5073724;28;20396;-69
2022/06/23 02:58:18;;;;;;;15.88;9.05;;;;;;;16.53;72.97;101044.31;5073226;28;20115;-69
2022/06/23 03:00:59;;;;;;;14.32;9.25;;;;;;;16.50;72.20;101039.19;5073615;28;20065;-69
2022/06/23 03:03:34;;;;;;;10.98;8.85;;;;;;;16.46;73.13;101039.41;5073767;28;20031;-69
2022/06/23 03:06:03;;;;;;;18.15;9.60;;;;;;;16.42;73.71;101033.44;5072697;28;20023;-69
2022/06/23 03:08:45;;;;;;;14.25;9.02;;;;;;;16.41;73.68;101033.50;5073833;28;20036;-69
2022/06/23 03:11:51;;;;;;;13.85;9.23;;;;;;;16.35;73.70;101029.38;5073019;28;20028;-70
2022/06/23 03:14:16;;;;;;;13.45;8.85;;;;;;;16.32;73.28;101032.16;5073449;28;20421;-69
2022/06/23 03:16:48;;;;;;;13.68;9.15;;;;;;;16.20;73.93;101024.78;5073380;28;20029;-69
2022/06/23 03:19:21;;;;;;;15.00;9.07;;;;;;;16.28;73.58;101023.50;5072518;28;20035;-69
2022/06/23 03:22:22;;;;;;;15.02;9.20;;;;;;;16.29;72.71;101021.75;5073063;28;20380;-69
2022/06/23 03:25:20;;;;;;;14.75;9.45;;;;;;;16.23;73.22;101029.91;5073052;28;20443;-70
2022/06/23 03:27:59;;;;;;;16.52;10.35;;;;;;;16.19;73.54;101023.94;5073066;28;20536;-70
2022/06/23 03:30:36;;;;;;;17.27;9.40;;;;;;;16.12;74.09;101031.25;5073575;28;20031;-69
2022/06/23 03:33:08;;;;;;;13.10;9.07;;;;;;;16.08;74.15;101044.56;5072399;28;20443;-69
2022/06/23 03:35:36;;;;;;;14.05;8.93;;;;;;;16.09;74.06;101038.41;5073147;28;20055;-69
2022/06/23 03:38:07;;;;;;;13.93;9.27;;;;;;;16.07;74.04;101033.19;5073345;28;20031;-69
2022/06/23 03:43:32;;;;;;;18.27;9.85;;;;;;;15.95;75.01;101041.59;5073041;28;20039;-69
2022/06/23 03:46:04;;;;;;;13.77;9.27;;;;;;;15.96;75.37;101045.97;5073262;28;20028;-69
2022/06/23 03:48:44;;;;;;;13.75;9.05;;;;;;;15.93;74.06;101035.59;5072600;28;20274;-69
2022/06/23 03:51:23;;;;;;;13.98;9.07;;;;;;;15.99;74.25;101048.47;5073031;28;20380;-69
2022/06/23 03:54:16;;;;;;;15.50;9.32;;;;;;;16.00;73.64;101041.44;5071914;28;20029;-69
2022/06/23 03:56:49;;;;;;;12.60;8.85;;;;;;;16.02;74.24;101047.47;5072812;28;20059;-69
2022/06/23 03:59:19;;;;;;;9.77;8.60;;;;;;;16.02;74.20;101045.72;5073061;28;20139;-69
2022/06/23 04:01:47;;;;;;;15.70;8.85;;;;;;;16.02;73.41;101040.44;5071945;28;20023;-69
2022/06/23 04:04:17;;;;;;;12.13;8.95;;;;;;;16.08;73.60;101045.41;5072736;28;20380;-69
2022/06/23 04:06:46;;;;;;;11.32;9.15;;;;;;;16.07;73.26;101037.63;5072781;28;20384;-69
2022/06/23 04:09:23;;;;;;;10.38;9.07;;;;;;;16.13;73.25;101038.19;5071897;28;20537;-69
2022/06/23 04:12:02;;;;;;;12.07;7.95;;;;;;;16.20;72.48;101032.69;5072421;28;20555;-69
2022/06/23 04:14:40;;;;;;;11.85;8.75;;;;;;;16.25;72.31;101034.19;5072148;28;20043;-69
2022/06/23 04:17:13;;;;;;;15.05;9.10;;;;;;;16.23;71.75;101033.38;5072831;28;20020;-69
2022/06/23 04:19:43;;;;;;;11.52;8.85;;;;;;;16.32;71.14;101021.63;5072527;28;20043;-69
2022/06/23 04:22:16;;;;;;;12.43;8.20;;;;;;;16.43;70.52;101027.25;5072000;28;20498;-69
2022/06/23 04:24:44;;;;;;;14.50;9.38;;;;;;;16.39;70.14;101023.06;5072544;28;20021;-69
2022/06/23 04:27:20;;;;;;;17.70;8.40;;;;;;;16.48;69.75;101022.66;5072490;28;20436;-69
2022/06/23 04:29:52;;;;;;;12.95;8.32;;;;;;;16.49;69.96;101037.50;5071540;28;20473;-69
2022/06/23 04:32:23;;;;;;;15.07;9.00;;;;;;;16.53;69.44;101036.44;5072713;28;20037;-69
2022/06/23 04:34:59;;;;;;;12.05;8.00;;;;;;;16.56;69.23;101038.91;5072329;28;20028;-69
2022/06/23 04:37:32;;;;;;;11.40;8.40;;;;;;;16.65;69.33;101036.81;5071622;28;20034;-70
2022/06/23 04:40:21;;;;;;;14.07;9.05;;;;;;;16.71;68.38;101037.38;5072617;28;20036;-69
2022/06/23 04:42:53;;;;;;;11.13;7.90;;;;;;;16.65;68.64;101040.28;5071518;28;20040;-70
2022/06/23 04:45:42;;;;;;;14.50;8.45;;;;;;;16.73;68.22;101039.94;5072550;28;20031;-69
2022/06/23 04:48:19;;;;;;;14.43;8.40;;;;;;;16.80;67.99;101028.22;5072474;28;20028;-69
2022/06/23 04:50:59;;;;;;;9.85;8.18;;;;;;;16.81;67.71;101038.69;5071566;28;20067;-70
2022/06/23 04:53:40;;;;;;;13.02;7.57;;;;;;;16.85;67.68;101024.47;5072525;28;20048;-69
2022/06/23 04:56:29;;;;;;;12.95;8.73;;;;;;;16.92;67.46;101026.81;5072240;28;20048;-69
2022/06/23 04:59:02;;;;;;;12.50;8.32;;;;;;;16.96;68.53;101029.22;5062426;28;20041;-70
2022/06/23 05:01:36;;;;;;;11.48;7.57;;;;;;;17.00;67.65;101029.91;5076226;28;20029;-69
2022/06/23 05:04:03;;;;;;;11.30;8.15;;;;;;;17.06;67.43;101027.00;5075591;28;20024;-70
2022/06/23 05:06:37;;;;;;;10.35;8.07;;;;;;;17.14;66.72;101035.41;5076044;28;20464;-70
2022/06/23 05:09:11;;;;;;;12.35;7.85;;;;;;;17.18;66.91;101036.97;5076003;28;20032;-69
2022/06/23 05:11:44;;;;;;;12.18;8.13;;;;;;;17.26;66.38;101033.94;5075120;28;20024;-69
2022/06/23 05:14:26;;;;;;;12.82;7.85;;;;;;;17.30;65.52;101041.66;5076097;28;20031;-69
2022/06/23 05:17:01;;;;;;;9.57;7.80;;;;;;;17.26;64.28;101026.03;5075635;28;20028;-70
2022/06/23 05:19:34;;;;;;;13.00;7.68;;;;;;;17.40;65.39;101034.16;5074991;28;20056;-69
2022/06/23 05:22:39;;;;;;;10.38;7.40;;;;;;;17.46;64.88;101035.59;5076009;28;20107;-70
2022/06/23 05:25:41;;;;;;;11.57;7.40;;;;;;;17.48;64.47;101039.88;5074384;28;20036;-69
2022/06/23 05:28:15;;;;;;;18.33;8.00;;;;;;;17.52;65.33;101024.78;5075804;28;20021;-69
2022/06/23 05:30:49;;;;;;;12.95;8.40;;;;;;;17.59;63.91;101030.59;5075470;28;20017;-70
2022/06/23 05:33:21;;;;;;;11.10;7.70;;;;;;;17.57;64.17;101032.47;5074898;28;20017;-69
2022/06/23 05:35:49;;;;;;;13.05;7.20;;;;;;;17.63;63.68;101043.56;5075277;28;20028;-69
2022/06/23 05:38:19;;;;;;;16.48;7.72;;;;;;;17.70;64.29;101037.03;5075310;28;20487;-70
2022/06/23 05:40:57;;;;;;;8.77;7.35;;;;;;;17.75;63.08;101032.38;5074453;28;20024;-69
2022/06/23 05:43:26;;;;;;;10.45;8.20;;;;;;;17.81;63.24;101033.88;5075437;28;20025;-70
2022/06/23 05:45:54;;;;;;;14.50;7.80;;;;;;;17.88;63.03;101030.00;5074252;28;20032;-70
2022/06/23 05:48:24;;;;;;;11.07;7.53;;;;;;;17.96;62.02;101034.91;5075229;28;20024;-70
2022/06/23 05:51:09;;;;;;;10.48;7.82;;;;;;;18.02;62.37;101040.72;5074844;28;20017;-70
2022/06/23 05:53:41;;;;;;;9.77;8.00;;;;;;;18.11;62.27;101036.75;5074225;28;20077;-70
2022/06/23 05:56:16;;;;;;;12.18;7.90;;;;;;;18.19;62.80;101045.13;5074981;28;20484;-70
2022/06/23 05:58:49;;;;;;;15.80;8.23;;;;;;;18.25;61.50;101039.53;5074754;28;20028;-69
2022/06/23 06:01:14;;;;;;;;;;;;;;;18.31;61.81;101035.72;5074869;28;20033;-69
2022/06/23 06:03:49;;;;;;;11.33;7.80;;;;;;;18.38;61.63;101036.25;5074911;28;20057;-70
2022/06/23 06:06:14;;;;;;;9.18;7.65;;;;;;;18.45;61.73;101032.34;5075153;28;20279;-70
2022/06/23 06:11:33;;;;;;;12.43;7.65;;;;;;;18.69;61.64;101028.38;5074107;28;20563;-70
2022/06/23 06:14:01;;;;;;;12.18;7.40;;;;;;;18.79;60.52;101025.28;5074086;28;20032;-70
2022/06/23 06:16:28;;;;;;;9.77;7.10;;;;;;;18.85;60.63;101028.44;5074862;28;20127;-70
2022/06/23 06:18:54;;;;;;;11.60;7.78;;;;;;;18.93;60.26;101022.72;5074318;28;20020;-70
2022/06/23 06:21:22;;;;;;;10.75;6.93;;;;;;;19.03;60.20;101025.69;5073983;28;20044;-69
2022/06/23 06:24:22;;;;;;;10.82;6.88;;;;;;;19.12;60.91;101011.97;5074474;28;20066;-70
2022/06/23 06:26:51;;;;;;;11.00;7.57;;;;;;;19.24;60.30;101021.84;5074265;28;20039;-70
2022/06/23 06:29:31;;;;;;;11.07;7.45;;;;;;;19.33;59.65;101026.63;5073791;28;20058;-70
2022/06/23 06:32:04;;;;;;;14.93;7.53;;;;;;;19.42;58.51;101031.38;5074066;28;20430;-70
2022/06/23 06:34:53;;;;;;;10.55;7.53;;;;;;;19.55;58.12;101026.22;5074233;28;20042;-70
2022/06/23 06:37:19;;;;;;;13.77;7.65;;;;;;;19.64;58.47;101030.16;5074468;28;20052;-70
2022/06/23 06:39:58;;;;;;;14.43;8.02;;;;;;;19.71;58.30;101026.22;5073830;28;20476;-70
2022/06/23 06:42:54;;;;;;;15.15;7.25;;;;;;;19.78;57.66;101017.00;5073417;28;20085;-70
2022/06/23 06:45:25;;;;;;;15.18;7.85;;;;;;;19.96;58.14;101027.41;5074300;28;20409;-70
2022/06/23 06:47:50;;;;;;;11.27;6.90;;;;;;;20.06;57.10;101020.63;5073731;28;20050;-70
2022/06/23 06:50:36;;;;;;;11.40;7.93;;;;;;;20.15;57.85;101028.00;5073314;28;20021;-70
2022/06/23 06:53:12;;;;;;;9.48;7.05;;;;;;;20.24;57.70;101024.81;5073987;28;20024;-70
2022/06/23 06:55:46;;;;;;;7.82;6.53;;;;;;;20.34;57.42;101028.59;5073709;28;20055;-70
2022/06/23 06:58:26;;;;;;;11.85;7.22;;;;;;;20.45;56.89;101032.38;5073232;28;20032;-70
2022/06/23 07:00:54;;;;;;;12.18;7.45;;;;;;;20.55;56.77;101033.53;5073517;28;20040;-70
2022/06/23 07:03:22;;;;;;;10.88;6.97;;;;;;;20.66;57.14;101041.66;5072935;28;20029;-70
2022/06/23 07:05:59;;;;;;;11.90;7.53;;;;;;;20.75;57.37;101053.47;5073327;28;20028;-70
2022/06/23 07:08:28;;;;;;;17.75;7.63;;;;;;;20.86;57.24;101043.03;5073780;28;20119;-70
2022/06/23 07:11:03;;;;;;;15.43;6.70;;;;;;;20.99;57.10;101035.16;5072680;28;20032;-70
2022/06/23 07:13:38;;;;;;;11.27;6.70;;;;;;;21.13;58.35;101043.09;5073779;28;20082;-70
2022/06/23 07:16:17;;;;;;;9.25;6.43;;;;;;;21.16;57.51;101031.47;5073508;28;20025;-70
2022/06/23 07:19:05;;;;;;;11.43;6.97;;;;;;;21.33;58.02;101033.84;5072572;28;20024;-70
2022/06/23 07:21:38;;;;;;;10.07;7.43;;;;;;;21.45;57.40;101033.09;5073186;28;20028;-70
2022/06/23 07:24:12;;;;;;;12.55;7.82;;;;;;;21.53;57.81;101026.41;5072590;28;20416;-70
2022/06/23 07:26:54;;;;;;;14.80;7.80;;;;;;;21.64;57.73;101026.53;5073041;28;20077;-70
2022/06/23 07:29:41;;;;;;;11.73;8.10;;;;;;;21.73;58.42;101024.13;5073488;28;20032;-70
2022/06/23 07:32:28;;;;;;;13.38;8.30;;;;;;;21.83;58.23;101026.16;5072518;28;20031;-70
2022/06/23 07:35:12;;;;;;;10.68;7.82;;;;;;;21.96;57.59;101027.88;5072824;28;20021;-70
2022/06/23 07:37:43;;;;;;;11.55;7.75;;;;;;;22.05;58.96;101022.91;5073089;28;20028;-70
2022/06/23 07:40:11;;;;;;;14.63;7.50;;;;;;;22.17;60.02;101030.03;5072535;28;20112;-70
2022/06/23 07:42:48;;;;;;;13.32;8.23;;;;;;;22.30;58.15;101022.06;5072985;28;20094;-70
2022/06/23 07:45:42;;;;;;;12.55;7.43;;;;;;;22.37;58.39;101028.66;5072295;28;20063;-70
2022/06/23 07:48:08;;;;;;;11.70;7.57;;;;;;;22.54;58.71;101024.81;5073164;28;20025;-70
2022/06/23 07:50:33;;;;;;;14.20;8.25;;;;;;;22.65;59.76;101022.22;5072781;28;20048;-73
2022/06/23 07:52:59;;;;;;;11.32;8.30;;;;;;;22.76;58.41;101024.13;5072098;28;20032;-73
2022/06/23 07:55:33;;;;;;;12.15;7.85;;;;;;;22.83;58.74;101022.75;5072753;28;20086;-73
2022/06/23 07:57:58;;;;;;;;;;;;;;;22.90;58.49;101021.34;5073564;28;20025;-73
2022/06/23 08:00:25;;;;;;;13.32;7.72;;;;;;;23.05;58.44;101020.25;5072073;28;20303;-70
2022/06/23 08:03:00;;;;;;;12.50;7.78;;;;;;;23.17;59.18;101017.66;5072744;28;20024;-70
2022/06/23 08:05:52;;;;;;;14.07;7.60;;;;;;;23.29;59.83;101019.41;5072996;28;20090;-70
2022/06/23 08:08:24;;;;;;;14.60;7.95;;;;;;;23.37;57.53;101019.66;5070721;28;20082;-70
2022/06/23 08:12:53;;;;;;;13.68;8.68;;;;;;;23.45;57.53;101022.63;5072642;28;20029;-70
2022/06/23 08:13:43;;;;;;;14.60;7.95;;;;;;;23.54;59.62;101021.06;5071660;28;20068;-70
2022/06/23 08:19:09;;;;;;;13.70;7.60;;;;;;;23.74;58.68;101019.59;5072635;28;20102;-70
2022/06/23 08:21:53;;;;;;;11.95;7.15;;;;;;;23.87;58.81;101011.53;5071803;28;20024;-70
2022/06/23 08:24:23;;;;;;;13.60;7.78;;;;;;;23.98;58.45;101006.22;5072736;28;20028;-70
2022/06/23 08:27:00;;;;;;;9.90;6.50;;;;;;;24.06;58.05;101002.00;5072295;28;20028;-70
2022/06/23 08:29:37;;;;;;;11.05;6.68;;;;;;;24.13;58.47;101002.34;5072098;28;20086;-70
2022/06/23 08:32:02;;;;;;;13.80;6.70;;;;;;;24.24;57.50;100999.72;5072776;28;20028;-70
2022/06/23 08:34:33;;;;;;;14.48;6.18;;;;;;;24.36;57.88;100997.91;5074167;28;20036;-70
2022/06/23 08:37:13;;;;;;;10.52;7.10;;;;;;;24.46;57.23;101004.25;5076540;28;20024;-70
2022/06/23 08:39:49;;;;;;;12.30;6.03;;;;;;;24.53;58.05;101002.78;5076432;28;20442;-70
2022/06/23 08:42:38;;;;;;;10.02;6.72;;;;;;;24.66;56.88;101005.31;5075941;28;20090;-70
2022/06/23 08:45:25;;;;;;;10.48;6.55;;;;;;;24.76;56.66;101003.59;5076587;28;20369;-70
2022/06/23 08:48:15;;;;;;;13.18;6.32;;;;;;;24.84;56.95;100997.63;5076015;28;20039;-70
2022/06/23 08:50:51;;;;;;;12.13;5.72;;;;;;;25.03;57.63;100999.66;5075449;28;20029;-70
2022/06/23 08:53:29;;;;;;;14.68;5.57;;;;;;;25.17;55.72;101009.22;5076531;28;20163;-70
2022/06/23 08:56:23;;;;;;;10.88;5.93;;;;;;;25.26;55.00;101003.13;5074858;28;20170;-70
2022/06/23 08:59:12;;;;;;;11.93;5.85;;;;;;;25.42;56.06;101002.72;5075818;28;20468;-70
2022/06/23 09:01:47;;;;;;;11.05;5.53;;;;;;;25.56;56.50;100997.03;5072684;28;20044;-70
2022/06/23 09:04:18;;;;;;;7.50;5.10;;;;;;;25.80;54.99;100999.50;5075291;28;20024;-70
2022/06/23 09:06:54;;;;;;;11.55;5.00;;;;;;;25.84;55.03;100998.28;5075938;28;20146;-70
2022/06/23 09:09:26;;;;;;;13.25;5.50;;;;;;;25.90;54.75;100997.75;5076066;28;20439;-70
2022/06/23 09:12:29;;;;;;;12.30;6.00;;;;;;;25.99;55.35;100996.09;5074841;28;20025;-70
2022/06/23 09:15:36;;;;;;;12.73;5.15;;;;;;;26.11;55.24;100984.34;5075682;28;20043;-71
2022/06/23 09:18:07;;;;;;;9.52;4.72;;;;;;;26.35;55.59;100989.38;5068800;28;20025;-71
2022/06/23 09:21:10;;;;;;;10.07;4.80;;;;;;;26.47;55.05;100991.97;5073604;28;20047;-70
2022/06/23 09:24:04;;;;;;;8.80;4.30;;;;;;;26.60;54.56;100993.44;5072885;28;20174;-70
2022/06/23 09:26:49;;;;;;;9.40;4.97;;;;;;;26.65;53.75;100989.50;5072300;28;20479;-70
2022/06/23 09:29:26;;;;;;;17.30;4.95;;;;;;;26.74;55.19;100986.84;5070167;28;20595;-70
2022/06/23 09:32:00;;;;;;;13.45;5.82;;;;;;;26.81;55.51;100988.03;5072466;28;20081;-70
2022/06/23 09:34:40;;;;;;;12.48;4.80;;;;;;;26.81;54.92;100971.97;5072042;28;20016;-70
2022/06/23 09:37:30;;;;;;;11.57;5.07;;;;;;;26.95;54.53;100972.56;5069479;28;20037;-70
2022/06/23 09:40:20;;;;;;;12.60;5.00;;;;;;;27.20;54.10;100976.53;5074103;28;20039;-70
2022/06/23 09:43:07;;;;;;;15.02;5.07;;;;;;;27.35;53.99;100974.28;5073237;28;20043;-71
2022/06/23 09:46:01;;;;;;;10.20;4.75;;;;;;;27.45;53.44;100962.56;5066629;28;20178;-70
2022/06/23 09:49:12;;;;;;;12.77;5.05;;;;;;;27.60;53.04;100971.03;5072929;28;20039;-70
2022/06/23 09:51:57;;;;;;;10.80;5.15;;;;;;;27.70;52.94;100977.19;5075030;28;20032;-71
2022/06/23 09:54:46;;;;;;;10.30;5.57;;;;;;;27.82;52.02;100974.38;5068163;28;20024;-71
2022/06/23 09:57:44;;;;;;;10.48;5.55;;;;;;;28.12;52.14;100974.16;5074558;28;20029;-70
2022/06/23 10:00:17;;;;;;;11.30;5.85;;;;;;;28.38;50.81;100973.47;5074175;28;20036;-69
2022/06/23 10:03:17;;;;;;;18.05;5.93;;;;;;;28.70;51.29;100970.38;5073680;28;20031;-70
2022/06/23 10:06:01;;;;;;;11.00;5.82;;;;;;;28.65;50.53;100978.03;5075155;28;20036;-70
2022/06/23 10:08:39;;;;;;;8.80;5.50;;;;;;;28.31;50.02;100977.75;5068971;28;20109;-71
2022/06/23 10:11:40;;;;;;;15.18;6.55;;;;;;;28.57;50.08;100968.03;5061594;28;20037;-71
2022/06/23 10:14:15;;;;;;;14.20;7.00;;;;;;;28.90;49.51;100969.22;5063274;28;20436;-70
2022/06/23 10:16:55;;;;;;;16.33;5.88;;;;;;;29.10;48.72;100967.31;5062122;28;20038;-70
2022/06/23 10:19:43;;;;;;;11.98;6.60;;;;;;;29.34;48.50;100960.47;5063501;28;20370;-70
2022/06/23 10:22:39;;;;;;;13.20;5.80;;;;;;;29.41;50.13;100961.50;5072477;28;20082;-71
2022/06/23 10:25:18;;;;;;;12.43;6.18;;;;;;;29.62;48.70;100961.19;5073564;28;20028;-71
2022/06/23 10:27:46;;;;;;;15.57;6.25;;;;;;;29.79;47.38;100965.69;5063338;28;20461;-71
2022/06/23 10:30:28;;;;;;;12.23;5.35;;;;;;;29.61;46.88;100963.03;5068573;28;20361;-71
2022/06/23 10:33:26;;;;;;;10.40;4.35;;;;;;;29.84;45.11;100949.91;5073087;28;20097;-71
2022/06/23 10:36:10;;;;;;;11.02;4.90;;;;;;;30.00;44.41;100956.41;5071959;28;20103;-70
2022/06/23 10:38:53;;;;;;;15.23;5.45;;;;;;;30.07;45.16;100954.75;5072783;28;20497;-71
2022/06/23 10:41:40;;;;;;;13.05;4.93;;;;;;;30.35;43.99;100939.28;5072973;28;20037;-71
2022/06/23 10:44:31;;;;;;;11.80;5.05;;;;;;;30.39;44.04;100947.88;5070189;28;20046;-71
2022/06/23 10:47:26;;;;;;;10.73;4.40;;;;;;;30.36;42.99;100946.34;5065335;28;20035;-71
2022/06/23 10:49:51;;;;;;;13.38;4.88;;;;;;;30.29;42.80;100937.25;5060191;28;20032;-70
2022/06/23 10:52:16;;;;;;;11.90;4.70;;;;;;;30.37;42.67;100944.50;5073151;28;20032;-71
2022/06/23 10:55:00;;;;;;;9.37;4.73;;;;;;;30.08;44.04;100940.31;5072213;28;20048;-71
2022/06/23 10:57:28;;;;;;;8.60;4.53;;;;;;;30.07;43.30;100935.94;5072564;28;20278;-70
2022/06/23 11:00:09;;;;;;;11.18;4.93;;;;;;;30.35;45.92;100933.91;5072315;28;20072;-71
2022/06/23 11:02:46;;;;;;;8.48;4.80;;;;;;;30.39;42.44;100932.56;5072497;28;20062;-71
2022/06/23 11:05:20;;;;;;;9.88;5.45;;;;;;;30.58;44.03;100925.25;5070213;28;20029;-71
2022/06/23 11:08:12;;;;;;;13.25;5.05;;;;;;;30.59;43.78;100930.44;5072067;28;20159;-71
2022/06/23 11:10:50;;;;;;;9.37;4.50;;;;;;;30.82;43.99;100927.16;5071388;28;20040;-71
2022/06/23 11:13:34;;;;;;;7.88;4.82;;;;;;;31.11;43.05;100929.38;5072213;28;20062;-71
2022/06/23 11:16:20;;;;;;;13.95;5.25;;;;;;;31.48;42.56;100923.50;5072722;28;20017;-71
2022/06/23 11:19:15;;;;;;;10.23;5.00;;;;;;;31.58;42.42;100928.69;5068446;28;20431;-71
2022/06/23 11:21:49;;;;;;;11.93;5.45;;;;;;;31.57;40.30;100927.84;5068134;28;20036;-71
2022/06/23 11:24:42;;;;;;;12.15;5.80;;;;;;;31.97;41.26;100923.41;5070595;28;20119;-71
2022/06/23 11:27:08;;;;;;;;;;;;;;;31.91;41.43;100916.00;5059227;28;20078;-71
2022/06/23 11:29:54;;;;;;;12.37;5.10;;;;;;;32.00;41.14;100914.13;5071972;28;19941;-71
2022/06/23 11:32:27;;;;;;;9.68;5.10;;;;;;;32.39;40.08;100922.22;5069774;28;20024;-71
2022/06/23 11:35:01;;;;;;;11.75;5.03;;;;;;;32.03;38.06;100928.09;5073781;28;20066;-71
2022/06/23 11:37:54;;;;;;;10.55;5.10;;;;;;;31.91;40.87;100924.09;5063390;28;20032;-74
2022/06/23 11:40:28;;;;;;;13.20;5.43;;;;;;;32.03;41.66;100924.56;5071946;28;20090;-74
2022/06/23 11:43:14;;;;;;;13.27;5.18;;;;;;;32.29;38.84;100919.72;5069518;28;20450;-74
2022/06/23 11:45:53;;;;;;;12.93;6.40;;;;;;;31.97;38.97;100919.88;5072315;28;20036;-74
2022/06/23 11:48:40;;;;;;;13.20;5.15;;;;;;;32.71;40.64;100913.13;5072826;28;20029;-74
2022/06/23 11:51:28;;;;;;;9.38;5.15;;;;;;;33.72;37.90;100908.41;5060844;28;20024;-75
2022/06/23 11:54:19;;;;;;;19.63;5.30;;;;;;;34.99;37.56;100895.38;5071154;28;20491;-76
2022/06/23 11:56:44;;;;;;;10.50;5.40;;;;;;;36.35;35.22;100890.41;5069996;28;20033;-75
2022/06/23 11:59:31;;;;;;;14.07;5.23;;;;;;;37.17;31.76;100904.78;5070760;28;20041;-75
2022/06/23 12:01:56;;;;;;;11.55;5.30;;;;;;;36.33;31.32;100892.47;5071385;28;20032;-75
2022/06/23 12:04:21;;;;;;;14.13;5.30;;;;;;;36.90;31.96;100902.03;5072364;28;20128;-75
2022/06/23 12:06:53;;;;;;;10.15;4.78;;;;;;;38.10;28.41;100889.16;5070569;28;20028;-75
2022/06/23 12:09:53;;;;;;;14.25;4.90;;;;;;;38.67;29.42;100894.72;5071225;28;20056;-75
2022/06/23 12:12:20;;;;;;;10.88;4.70;;;;;;;39.46;26.33;100901.44;5071878;28;20101;-75
2022/06/23 12:14:46;;;;;;;9.93;4.25;;;;;;;38.80;27.50;100891.06;5070471;28;20021;-75
2022/06/23 12:17:19;;;;;;;7.53;4.70;;;;;;;37.42;29.88;100894.09;5071927;28;20024;-75
2022/06/23 12:19:53;;;;;;;10.77;4.68;;;;;;;38.64;29.09;100882.34;5056027;28;20032;-75